sensor_id;sensor_type;location;lat;lon;timestamp;P1;durP1;ratioP1;P2;durP2;ratioP2
20142;SDS011;10509;46.476;7.134;2022-10-16T00:01:22;1.77;;;0.70;;
20142;SDS011;10509;46.476;7.134;2022-10-16T00:03:48;1.47;;;0.87;;
20142;SDS011;10509;46.476;7.134;2022-10-16T00:06:15;1.47;;;0.80;;
20142;SDS011;10509;46.476;7.134;2022-10-16T00:08:42;2.43;;;0.90;;
20142;SDS011;10509;46.476;7.134;2022-10-16T00:11:12;1.50;;;0.67;;
20142;SDS011;10509;46.476;7.134;2022-10-16T00:13:39;1.47;;;0.80;;
20142;SDS011;10509;46.476;7.134;2022-10-16T00:16:05;1.13;;;0.93;;
20142;SDS011;10509;46.476;7.134;2022-10-16T00:18:31;2.13;;;0.80;;
20142;SDS011;10509;46.476;7.134;2022-10-16T00:21:02;0.97;;;0.70;;
20142;SDS011;10509;46.476;7.134;2022-10-16T00:23:28;0.80;;;0.70;;
20142;SDS011;10509;46.476;7.134;2022-10-16T00:25:58;1.63;;;0.80;;
20142;SDS011;10509;46.476;7.134;2022-10-16T00:28:24;0.77;;;0.50;;
20142;SDS011;10509;46.476;7.134;2022-10-16T00:30:51;1.80;;;0.47;;
20142;SDS011;10509;46.476;7.134;2022-10-16T00:33:17;2.00;;;0.70;;
20142;SDS011;10509;46.476;7.134;2022-10-16T00:35:43;1.17;;;0.60;;
20142;SDS011;10509;46.476;7.134;2022-10-16T00:38:09;3.27;;;1.00;;
20142;SDS011;10509;46.476;7.134;2022-10-16T00:40:35;1.50;;;0.70;;
20142;SDS011;10509;46.476;7.134;2022-10-16T00:43:01;2.87;;;0.80;;
20142;SDS011;10509;46.476;7.134;2022-10-16T00:45:27;1.50;;;0.70;;
20142;SDS011;10509;46.476;7.134;2022-10-16T00:47:54;1.33;;;0.70;;
20142;SDS011;10509;46.476;7.134;2022-10-16T00:50:26;0.70;;;0.60;;
20142;SDS011;10509;46.476;7.134;2022-10-16T00:52:54;1.27;;;0.60;;
20142;SDS011;10509;46.476;7.134;2022-10-16T00:55:20;0.60;;;0.50;;
20142;SDS011;10509;46.476;7.134;2022-10-16T00:57:46;1.17;;;0.50;;
20142;SDS011;10509;46.476;7.134;2022-10-16T01:00:16;5.30;;;0.60;;
20142;SDS011;10509;46.476;7.134;2022-10-16T01:02:42;1.57;;;0.50;;
20142;SDS011;10509;46.476;7.134;2022-10-16T01:05:08;1.40;;;0.57;;
20142;SDS011;10509;46.476;7.134;2022-10-16T01:07:41;0.70;;;0.60;;
20142;SDS011;10509;46.476;7.134;2022-10-16T01:10:22;1.53;;;0.60;;
20142;SDS011;10509;46.476;7.134;2022-10-16T01:15:25;1.33;;;0.40;;
20142;SDS011;10509;46.476;7.134;2022-10-16T01:20:26;1.43;;;0.60;;
20142;SDS011;10509;46.476;7.134;2022-10-16T01:23:04;1.20;;;0.50;;
20142;SDS011;10509;46.476;7.134;2022-10-16T01:25:34;1.60;;;0.43;;
20142;SDS011;10509;46.476;7.134;2022-10-16T01:28:03;1.53;;;0.40;;
20142;SDS011;10509;46.476;7.134;2022-10-16T01:30:30;3.40;;;0.60;;
20142;SDS011;10509;46.476;7.134;2022-10-16T01:35:29;0.83;;;0.50;;
20142;SDS011;10509;46.476;7.134;2022-10-16T01:37:58;1.17;;;0.40;;
20142;SDS011;10509;46.476;7.134;2022-10-16T01:40:27;1.10;;;0.50;;
20142;SDS011;10509;46.476;7.134;2022-10-16T01:43:00;1.07;;;0.50;;
20142;SDS011;10509;46.476;7.134;2022-10-16T01:45:28;3.90;;;0.80;;
20142;SDS011;10509;46.476;7.134;2022-10-16T01:47:55;2.40;;;0.60;;
20142;SDS011;10509;46.476;7.134;2022-10-16T01:50:22;1.00;;;0.60;;
20142;SDS011;10509;46.476;7.134;2022-10-16T01:52:49;2.10;;;0.50;;
20142;SDS011;10509;46.476;7.134;2022-10-16T01:55:21;2.30;;;0.60;;
20142;SDS011;10509;46.476;7.134;2022-10-16T01:57:48;0.83;;;0.70;;
20142;SDS011;10509;46.476;7.134;2022-10-16T02:00:15;2.10;;;0.50;;
20142;SDS011;10509;46.476;7.134;2022-10-16T02:02:43;1.10;;;0.50;;
20142;SDS011;10509;46.476;7.134;2022-10-16T02:05:12;0.90;;;0.50;;
20142;SDS011;10509;46.476;7.134;2022-10-16T02:07:40;0.80;;;0.50;;
20142;SDS011;10509;46.476;7.134;2022-10-16T02:10:07;1.13;;;0.40;;
20142;SDS011;10509;46.476;7.134;2022-10-16T02:12:33;2.47;;;0.60;;
20142;SDS011;10509;46.476;7.134;2022-10-16T02:15:02;3.03;;;0.50;;
20142;SDS011;10509;46.476;7.134;2022-10-16T02:17:28;1.07;;;0.50;;
20142;SDS011;10509;46.476;7.134;2022-10-16T02:19:54;1.20;;;0.60;;
20142;SDS011;10509;46.476;7.134;2022-10-16T02:22:24;0.73;;;0.50;;
20142;SDS011;10509;46.476;7.134;2022-10-16T02:25:05;1.77;;;0.80;;
20142;SDS011;10509;46.476;7.134;2022-10-16T02:30:03;0.90;;;0.40;;
20142;SDS011;10509;46.476;7.134;2022-10-16T02:32:33;1.97;;;0.60;;
20142;SDS011;10509;46.476;7.134;2022-10-16T02:35:00;2.10;;;1.07;;
20142;SDS011;10509;46.476;7.134;2022-10-16T02:37:27;2.50;;;0.67;;
20142;SDS011;10509;46.476;7.134;2022-10-16T02:39:54;1.33;;;0.50;;
20142;SDS011;10509;46.476;7.134;2022-10-16T02:42:20;0.77;;;0.50;;
20142;SDS011;10509;46.476;7.134;2022-10-16T02:44:46;2.00;;;0.50;;
20142;SDS011;10509;46.476;7.134;2022-10-16T02:47:12;2.07;;;0.47;;
20142;SDS011;10509;46.476;7.134;2022-10-16T02:49:38;1.10;;;0.50;;
20142;SDS011;10509;46.476;7.134;2022-10-16T02:52:04;0.90;;;0.60;;
20142;SDS011;10509;46.476;7.134;2022-10-16T02:54:30;0.90;;;0.40;;
20142;SDS011;10509;46.476;7.134;2022-10-16T02:56:56;2.70;;;0.57;;
20142;SDS011;10509;46.476;7.134;2022-10-16T02:59:22;0.77;;;0.40;;
20142;SDS011;10509;46.476;7.134;2022-10-16T03:01:48;0.60;;;0.40;;
20142;SDS011;10509;46.476;7.134;2022-10-16T03:04:14;0.90;;;0.50;;
20142;SDS011;10509;46.476;7.134;2022-10-16T03:06:40;1.53;;;0.60;;
20142;SDS011;10509;46.476;7.134;2022-10-16T03:09:06;1.83;;;0.60;;
20142;SDS011;10509;46.476;7.134;2022-10-16T03:11:32;0.50;;;0.50;;
20142;SDS011;10509;46.476;7.134;2022-10-16T03:13:58;0.70;;;0.50;;
20142;SDS011;10509;46.476;7.134;2022-10-16T03:16:25;1.93;;;0.60;;
20142;SDS011;10509;46.476;7.134;2022-10-16T03:18:51;0.50;;;0.40;;
20142;SDS011;10509;46.476;7.134;2022-10-16T03:21:17;2.23;;;0.57;;
20142;SDS011;10509;46.476;7.134;2022-10-16T03:23:43;1.17;;;0.60;;
20142;SDS011;10509;46.476;7.134;2022-10-16T03:26:09;2.83;;;0.50;;
20142;SDS011;10509;46.476;7.134;2022-10-16T03:28:35;1.33;;;0.50;;
20142;SDS011;10509;46.476;7.134;2022-10-16T03:31:01;0.83;;;0.53;;
20142;SDS011;10509;46.476;7.134;2022-10-16T03:33:27;0.83;;;0.50;;
20142;SDS011;10509;46.476;7.134;2022-10-16T03:35:53;0.90;;;0.60;;
20142;SDS011;10509;46.476;7.134;2022-10-16T03:38:20;1.33;;;0.60;;
20142;SDS011;10509;46.476;7.134;2022-10-16T03:40:46;0.87;;;0.70;;
20142;SDS011;10509;46.476;7.134;2022-10-16T03:43:13;4.97;;;0.70;;
20142;SDS011;10509;46.476;7.134;2022-10-16T03:45:39;1.03;;;0.60;;
20142;SDS011;10509;46.476;7.134;2022-10-16T03:48:05;1.03;;;0.70;;
20142;SDS011;10509;46.476;7.134;2022-10-16T03:50:31;1.10;;;0.70;;
20142;SDS011;10509;46.476;7.134;2022-10-16T03:52:57;1.50;;;0.73;;
20142;SDS011;10509;46.476;7.134;2022-10-16T03:55:23;1.77;;;0.60;;
20142;SDS011;10509;46.476;7.134;2022-10-16T03:57:49;1.87;;;0.40;;
20142;SDS011;10509;46.476;7.134;2022-10-16T04:00:15;1.67;;;0.60;;
20142;SDS011;10509;46.476;7.134;2022-10-16T04:02:41;1.47;;;0.47;;
20142;SDS011;10509;46.476;7.134;2022-10-16T04:05:08;0.77;;;0.50;;
20142;SDS011;10509;46.476;7.134;2022-10-16T04:07:34;2.40;;;0.83;;
20142;SDS011;10509;46.476;7.134;2022-10-16T04:10:00;1.20;;;0.50;;
20142;SDS011;10509;46.476;7.134;2022-10-16T04:12:26;1.97;;;0.50;;
20142;SDS011;10509;46.476;7.134;2022-10-16T04:14:52;2.47;;;0.60;;
20142;SDS011;10509;46.476;7.134;2022-10-16T04:17:18;2.13;;;0.70;;
20142;SDS011;10509;46.476;7.134;2022-10-16T04:19:44;2.37;;;0.60;;
20142;SDS011;10509;46.476;7.134;2022-10-16T04:22:10;2.90;;;0.60;;
20142;SDS011;10509;46.476;7.134;2022-10-16T04:24:36;1.87;;;0.40;;
20142;SDS011;10509;46.476;7.134;2022-10-16T04:27:03;0.90;;;0.50;;
20142;SDS011;10509;46.476;7.134;2022-10-16T04:29:29;2.50;;;0.57;;
20142;SDS011;10509;46.476;7.134;2022-10-16T04:32:01;3.80;;;0.50;;
20142;SDS011;10509;46.476;7.134;2022-10-16T04:34:27;1.60;;;0.50;;
20142;SDS011;10509;46.476;7.134;2022-10-16T04:36:53;0.93;;;0.40;;
20142;SDS011;10509;46.476;7.134;2022-10-16T04:39:19;1.43;;;0.50;;
20142;SDS011;10509;46.476;7.134;2022-10-16T04:41:45;1.63;;;0.47;;
20142;SDS011;10509;46.476;7.134;2022-10-16T04:44:11;2.33;;;0.40;;
20142;SDS011;10509;46.476;7.134;2022-10-16T04:52:33;1.00;;;0.50;;
20142;SDS011;10509;46.476;7.134;2022-10-16T04:55:21;2.33;;;0.60;;
20142;SDS011;10509;46.476;7.134;2022-10-16T04:57:50;5.13;;;0.70;;
20142;SDS011;10509;46.476;7.134;2022-10-16T05:00:16;0.37;;;0.37;;
20142;SDS011;10509;46.476;7.134;2022-10-16T05:02:42;1.67;;;0.40;;
20142;SDS011;10509;46.476;7.134;2022-10-16T05:05:08;1.43;;;0.40;;
20142;SDS011;10509;46.476;7.134;2022-10-16T05:07:34;1.50;;;0.50;;
20142;SDS011;10509;46.476;7.134;2022-10-16T05:10:00;0.97;;;0.50;;
20142;SDS011;10509;46.476;7.134;2022-10-16T05:12:26;2.03;;;0.50;;
20142;SDS011;10509;46.476;7.134;2022-10-16T05:14:52;2.93;;;0.50;;
20142;SDS011;10509;46.476;7.134;2022-10-16T05:17:23;1.23;;;0.50;;
20142;SDS011;10509;46.476;7.134;2022-10-16T05:19:49;1.27;;;0.67;;
20142;SDS011;10509;46.476;7.134;2022-10-16T05:22:15;0.90;;;0.60;;
20142;SDS011;10509;46.476;7.134;2022-10-16T05:24:41;4.00;;;0.80;;
20142;SDS011;10509;46.476;7.134;2022-10-16T05:27:07;1.30;;;1.07;;
20142;SDS011;10509;46.476;7.134;2022-10-16T05:29:33;1.37;;;0.60;;
20142;SDS011;10509;46.476;7.134;2022-10-16T05:31:59;2.37;;;0.50;;
20142;SDS011;10509;46.476;7.134;2022-10-16T05:34:25;2.83;;;0.60;;
20142;SDS011;10509;46.476;7.134;2022-10-16T05:36:51;0.80;;;0.40;;
20142;SDS011;10509;46.476;7.134;2022-10-16T05:39:18;2.87;;;0.50;;
20142;SDS011;10509;46.476;7.134;2022-10-16T05:41:44;0.90;;;0.40;;
20142;SDS011;10509;46.476;7.134;2022-10-16T05:44:10;1.57;;;0.40;;
20142;SDS011;10509;46.476;7.134;2022-10-16T05:46:36;0.63;;;0.40;;
20142;SDS011;10509;46.476;7.134;2022-10-16T05:49:02;1.23;;;0.30;;
20142;SDS011;10509;46.476;7.134;2022-10-16T05:51:28;1.90;;;0.80;;
20142;SDS011;10509;46.476;7.134;2022-10-16T05:53:54;1.17;;;0.70;;
20142;SDS011;10509;46.476;7.134;2022-10-16T05:56:20;1.37;;;0.57;;
20142;SDS011;10509;46.476;7.134;2022-10-16T05:58:46;3.47;;;0.50;;
20142;SDS011;10509;46.476;7.134;2022-10-16T06:01:13;1.53;;;0.60;;
20142;SDS011;10509;46.476;7.134;2022-10-16T06:03:40;2.50;;;1.03;;
20142;SDS011;10509;46.476;7.134;2022-10-16T06:06:10;1.40;;;0.90;;
20142;SDS011;10509;46.476;7.134;2022-10-16T06:08:36;1.40;;;0.90;;
20142;SDS011;10509;46.476;7.134;2022-10-16T06:11:06;1.53;;;0.70;;
20142;SDS011;10509;46.476;7.134;2022-10-16T06:13:33;0.90;;;0.60;;
20142;SDS011;10509;46.476;7.134;2022-10-16T06:15:59;1.10;;;0.80;;
20142;SDS011;10509;46.476;7.134;2022-10-16T06:18:26;2.83;;;1.00;;
20142;SDS011;10509;46.476;7.134;2022-10-16T06:20:53;2.50;;;0.70;;
20142;SDS011;10509;46.476;7.134;2022-10-16T06:23:19;1.07;;;0.60;;
20142;SDS011;10509;46.476;7.134;2022-10-16T06:25:45;1.10;;;0.60;;
20142;SDS011;10509;46.476;7.134;2022-10-16T06:28:11;0.80;;;0.57;;
20142;SDS011;10509;46.476;7.134;2022-10-16T06:30:37;0.97;;;0.60;;
20142;SDS011;10509;46.476;7.134;2022-10-16T06:33:03;2.10;;;0.60;;
20142;SDS011;10509;46.476;7.134;2022-10-16T06:35:29;2.00;;;0.60;;
20142;SDS011;10509;46.476;7.134;2022-10-16T06:37:56;0.80;;;0.50;;
20142;SDS011;10509;46.476;7.134;2022-10-16T06:40:22;0.90;;;0.60;;
20142;SDS011;10509;46.476;7.134;2022-10-16T06:42:48;3.33;;;0.60;;
20142;SDS011;10509;46.476;7.134;2022-10-16T06:45:16;1.63;;;0.60;;
20142;SDS011;10509;46.476;7.134;2022-10-16T06:47:42;1.23;;;0.70;;
20142;SDS011;10509;46.476;7.134;2022-10-16T06:50:08;1.00;;;0.60;;
20142;SDS011;10509;46.476;7.134;2022-10-16T06:52:34;2.30;;;0.70;;
20142;SDS011;10509;46.476;7.134;2022-10-16T06:55:00;2.83;;;1.20;;
20142;SDS011;10509;46.476;7.134;2022-10-16T06:57:27;3.00;;;0.70;;
20142;SDS011;10509;46.476;7.134;2022-10-16T06:59:53;1.10;;;0.80;;
20142;SDS011;10509;46.476;7.134;2022-10-16T07:02:20;3.73;;;0.70;;
20142;SDS011;10509;46.476;7.134;2022-10-16T07:04:45;1.67;;;0.60;;
20142;SDS011;10509;46.476;7.134;2022-10-16T07:07:12;0.83;;;0.50;;
20142;SDS011;10509;46.476;7.134;2022-10-16T07:09:37;0.80;;;0.60;;
20142;SDS011;10509;46.476;7.134;2022-10-16T07:12:04;1.43;;;0.50;;
20142;SDS011;10509;46.476;7.134;2022-10-16T07:14:30;2.97;;;0.70;;
20142;SDS011;10509;46.476;7.134;2022-10-16T07:16:55;1.93;;;0.90;;
20142;SDS011;10509;46.476;7.134;2022-10-16T07:19:21;1.90;;;1.00;;
20142;SDS011;10509;46.476;7.134;2022-10-16T07:21:48;2.27;;;1.37;;
20142;SDS011;10509;46.476;7.134;2022-10-16T07:24:15;2.43;;;2.10;;
20142;SDS011;10509;46.476;7.134;2022-10-16T07:26:42;1.20;;;0.83;;
20142;SDS011;10509;46.476;7.134;2022-10-16T07:29:15;1.20;;;0.90;;
20142;SDS011;10509;46.476;7.134;2022-10-16T07:31:41;1.13;;;0.63;;
20142;SDS011;10509;46.476;7.134;2022-10-16T07:34:08;1.40;;;0.60;;
20142;SDS011;10509;46.476;7.134;2022-10-16T07:36:34;1.73;;;0.50;;
20142;SDS011;10509;46.476;7.134;2022-10-16T07:39:00;2.00;;;0.57;;
20142;SDS011;10509;46.476;7.134;2022-10-16T07:41:26;1.67;;;0.60;;
20142;SDS011;10509;46.476;7.134;2022-10-16T07:43:53;1.13;;;0.53;;
20142;SDS011;10509;46.476;7.134;2022-10-16T07:46:19;1.83;;;0.63;;
20142;SDS011;10509;46.476;7.134;2022-10-16T07:48:45;0.90;;;0.77;;
20142;SDS011;10509;46.476;7.134;2022-10-16T07:51:13;2.50;;;0.60;;
20142;SDS011;10509;46.476;7.134;2022-10-16T07:53:40;1.20;;;0.63;;
20142;SDS011;10509;46.476;7.134;2022-10-16T07:56:06;1.13;;;0.50;;
20142;SDS011;10509;46.476;7.134;2022-10-16T07:58:32;2.07;;;0.80;;
20142;SDS011;10509;46.476;7.134;2022-10-16T08:01:02;0.77;;;0.60;;
20142;SDS011;10509;46.476;7.134;2022-10-16T08:03:29;1.80;;;0.50;;
20142;SDS011;10509;46.476;7.134;2022-10-16T08:05:56;2.97;;;0.60;;
20142;SDS011;10509;46.476;7.134;2022-10-16T08:08:22;0.80;;;0.60;;
20142;SDS011;10509;46.476;7.134;2022-10-16T08:10:48;0.70;;;0.60;;
20142;SDS011;10509;46.476;7.134;2022-10-16T08:13:14;2.27;;;0.80;;
20142;SDS011;10509;46.476;7.134;2022-10-16T08:15:43;0.73;;;0.60;;
20142;SDS011;10509;46.476;7.134;2022-10-16T08:18:10;2.33;;;0.70;;
20142;SDS011;10509;46.476;7.134;2022-10-16T08:20:36;2.03;;;0.67;;
20142;SDS011;10509;46.476;7.134;2022-10-16T08:23:02;1.33;;;0.60;;
20142;SDS011;10509;46.476;7.134;2022-10-16T08:25:28;1.20;;;0.90;;
20142;SDS011;10509;46.476;7.134;2022-10-16T08:27:54;3.03;;;0.90;;
20142;SDS011;10509;46.476;7.134;2022-10-16T08:30:21;3.43;;;0.60;;
20142;SDS011;10509;46.476;7.134;2022-10-16T08:32:48;0.90;;;0.60;;
20142;SDS011;10509;46.476;7.134;2022-10-16T08:35:14;2.67;;;0.60;;
20142;SDS011;10509;46.476;7.134;2022-10-16T08:37:40;0.73;;;0.50;;
20142;SDS011;10509;46.476;7.134;2022-10-16T08:40:07;2.67;;;0.50;;
20142;SDS011;10509;46.476;7.134;2022-10-16T08:45:20;0.70;;;0.60;;
20142;SDS011;10509;46.476;7.134;2022-10-16T08:48:00;0.63;;;0.40;;
20142;SDS011;10509;46.476;7.134;2022-10-16T08:50:28;0.80;;;0.60;;
20142;SDS011;10509;46.476;7.134;2022-10-16T08:52:55;0.90;;;0.40;;
20142;SDS011;10509;46.476;7.134;2022-10-16T08:55:37;1.13;;;0.50;;
20142;SDS011;10509;46.476;7.134;2022-10-16T08:58:14;1.93;;;0.53;;
20142;SDS011;10509;46.476;7.134;2022-10-16T09:00:40;1.17;;;0.50;;
20142;SDS011;10509;46.476;7.134;2022-10-16T09:08:09;1.77;;;0.50;;
20142;SDS011;10509;46.476;7.134;2022-10-16T09:10:45;1.70;;;1.00;;
20142;SDS011;10509;46.476;7.134;2022-10-16T09:13:17;1.10;;;0.40;;
20142;SDS011;10509;46.476;7.134;2022-10-16T09:20:53;0.60;;;0.40;;
20142;SDS011;10509;46.476;7.134;2022-10-16T09:23:28;0.90;;;0.40;;
20142;SDS011;10509;46.476;7.134;2022-10-16T09:25:55;2.38;;;0.50;;
20142;SDS011;10509;46.476;7.134;2022-10-16T09:28:22;0.90;;;0.40;;
20142;SDS011;10509;46.476;7.134;2022-10-16T09:30:48;0.70;;;0.30;;
20142;SDS011;10509;46.476;7.134;2022-10-16T09:33:14;0.85;;;0.40;;
20142;SDS011;10509;46.476;7.134;2022-10-16T09:35:42;0.50;;;0.40;;
20142;SDS011;10509;46.476;7.134;2022-10-16T09:38:09;0.50;;;0.20;;
20142;SDS011;10509;46.476;7.134;2022-10-16T09:40:46;0.77;;;0.40;;
20142;SDS011;10509;46.476;7.134;2022-10-16T09:43:16;1.00;;;0.20;;
20142;SDS011;10509;46.476;7.134;2022-10-16T09:45:52;1.33;;;0.40;;
20142;SDS011;10509;46.476;7.134;2022-10-16T09:48:19;0.32;;;0.30;;
20142;SDS011;10509;46.476;7.134;2022-10-16T09:50:54;0.57;;;0.30;;
20142;SDS011;10509;46.476;7.134;2022-10-16T09:53:21;0.50;;;0.40;;
20142;SDS011;10509;46.476;7.134;2022-10-16T09:55:51;0.75;;;0.30;;
20142;SDS011;10509;46.476;7.134;2022-10-16T09:58:17;1.23;;;0.40;;
20142;SDS011;10509;46.476;7.134;2022-10-16T10:00:49;0.65;;;0.35;;
20142;SDS011;10509;46.476;7.134;2022-10-16T10:03:23;1.33;;;0.30;;
20142;SDS011;10509;46.476;7.134;2022-10-16T10:05:56;0.90;;;0.30;;
20142;SDS011;10509;46.476;7.134;2022-10-16T10:08:22;0.50;;;0.40;;
20142;SDS011;10509;46.476;7.134;2022-10-16T10:10:48;1.20;;;0.30;;
20142;SDS011;10509;46.476;7.134;2022-10-16T10:13:21;0.52;;;0.20;;
20142;SDS011;10509;46.476;7.134;2022-10-16T10:15:48;0.93;;;0.40;;
20142;SDS011;10509;46.476;7.134;2022-10-16T10:18:16;0.63;;;0.30;;
20142;SDS011;10509;46.476;7.134;2022-10-16T10:20:43;0.40;;;0.20;;
20142;SDS011;10509;46.476;7.134;2022-10-16T10:23:25;0.55;;;0.40;;
20142;SDS011;10509;46.476;7.134;2022-10-16T10:28:47;2.13;;;0.50;;
20142;SDS011;10509;46.476;7.134;2022-10-16T10:34:01;1.33;;;0.30;;
20142;SDS011;10509;46.476;7.134;2022-10-16T10:36:35;0.30;;;0.20;;
20142;SDS011;10509;46.476;7.134;2022-10-16T10:39:11;0.60;;;0.30;;
20142;SDS011;10509;46.476;7.134;2022-10-16T10:57:36;1.13;;;0.30;;
20142;SDS011;10509;46.476;7.134;2022-10-16T11:07:38;0.20;;;0.17;;
20142;SDS011;10509;46.476;7.134;2022-10-16T11:10:12;0.43;;;0.40;;
20142;SDS011;10509;46.476;7.134;2022-10-16T11:12:42;0.90;;;0.60;;
20142;SDS011;10509;46.476;7.134;2022-10-16T11:17:45;0.40;;;0.20;;
20142;SDS011;10509;46.476;7.134;2022-10-16T11:20:18;0.60;;;0.20;;
20142;SDS011;10509;46.476;7.134;2022-10-16T11:22:54;0.98;;;0.13;;
20142;SDS011;10509;46.476;7.134;2022-10-16T11:25:40;0.60;;;0.20;;
20142;SDS011;10509;46.476;7.134;2022-10-16T11:28:09;0.88;;;0.20;;
20142;SDS011;10509;46.476;7.134;2022-10-16T11:30:41;0.60;;;0.30;;
20142;SDS011;10509;46.476;7.134;2022-10-16T11:35:46;1.23;;;0.30;;
20142;SDS011;10509;46.476;7.134;2022-10-16T11:38:15;1.17;;;0.30;;
20142;SDS011;10509;46.476;7.134;2022-10-16T11:40:47;0.45;;;0.20;;
20142;SDS011;10509;46.476;7.134;2022-10-16T11:46:17;2.28;;;0.30;;
20142;SDS011;10509;46.476;7.134;2022-10-16T11:56:40;0.75;;;0.70;;
20142;SDS011;10509;46.476;7.134;2022-10-16T11:59:08;1.65;;;0.38;;
20142;SDS011;10509;46.476;7.134;2022-10-16T12:09:22;0.45;;;0.40;;
20142;SDS011;10509;46.476;7.134;2022-10-16T12:11:49;0.70;;;0.57;;
20142;SDS011;10509;46.476;7.134;2022-10-16T12:19:17;0.45;;;0.20;;
20142;SDS011;10509;46.476;7.134;2022-10-16T12:21:44;1.13;;;0.50;;
20142;SDS011;10509;46.476;7.134;2022-10-16T12:24:20;0.47;;;0.25;;
20142;SDS011;10509;46.476;7.134;2022-10-16T12:26:47;0.30;;;0.30;;
20142;SDS011;10509;46.476;7.134;2022-10-16T12:29:19;0.50;;;0.50;;
20142;SDS011;10509;46.476;7.134;2022-10-16T12:31:48;0.90;;;0.30;;
20142;SDS011;10509;46.476;7.134;2022-10-16T12:34:48;0.88;;;0.70;;
20142;SDS011;10509;46.476;7.134;2022-10-16T12:37:08;1.20;;;0.52;;
20142;SDS011;10509;46.476;7.134;2022-10-16T12:39:34;0.45;;;0.30;;
20142;SDS011;10509;46.476;7.134;2022-10-16T12:42:05;0.47;;;0.20;;
20142;SDS011;10509;46.476;7.134;2022-10-16T12:44:35;0.40;;;0.40;;
20142;SDS011;10509;46.476;7.134;2022-10-16T12:47:02;0.77;;;0.30;;
20142;SDS011;10509;46.476;7.134;2022-10-16T12:51:54;1.77;;;0.45;;
20142;SDS011;10509;46.476;7.134;2022-10-16T12:54:22;0.65;;;0.40;;
20142;SDS011;10509;46.476;7.134;2022-10-16T13:17:35;1.48;;;0.40;;
20142;SDS011;10509;46.476;7.134;2022-10-16T13:23:21;0.55;;;0.30;;
20142;SDS011;10509;46.476;7.134;2022-10-16T13:28:21;1.00;;;0.40;;
20142;SDS011;10509;46.476;7.134;2022-10-16T13:30:52;1.25;;;0.43;;
20142;SDS011;10509;46.476;7.134;2022-10-16T13:35:48;0.20;;;0.20;;
20142;SDS011;10509;46.476;7.134;2022-10-16T13:38:17;0.70;;;0.38;;
20142;SDS011;10509;46.476;7.134;2022-10-16T13:40:50;1.08;;;0.43;;
20142;SDS011;10509;46.476;7.134;2022-10-16T13:43:18;1.02;;;0.30;;
20142;SDS011;10509;46.476;7.134;2022-10-16T13:45:58;1.00;;;0.40;;
20142;SDS011;10509;46.476;7.134;2022-10-16T13:48:24;0.30;;;0.30;;
20142;SDS011;10509;46.476;7.134;2022-10-16T13:53:26;0.50;;;0.30;;
20142;SDS011;10509;46.476;7.134;2022-10-16T13:55:52;0.60;;;0.30;;
20142;SDS011;10509;46.476;7.134;2022-10-16T13:58:18;0.40;;;0.32;;
20142;SDS011;10509;46.476;7.134;2022-10-16T14:01:01;2.63;;;0.40;;
20142;SDS011;10509;46.476;7.134;2022-10-16T14:03:28;0.93;;;0.40;;
20142;SDS011;10509;46.476;7.134;2022-10-16T14:05:55;1.27;;;0.70;;
20142;SDS011;10509;46.476;7.134;2022-10-16T14:08:22;0.47;;;0.45;;
20142;SDS011;10509;46.476;7.134;2022-10-16T14:10:50;1.98;;;0.30;;
20142;SDS011;10509;46.476;7.134;2022-10-16T14:13:18;0.70;;;0.30;;
20142;SDS011;10509;46.476;7.134;2022-10-16T14:15:46;0.77;;;0.30;;
20142;SDS011;10509;46.476;7.134;2022-10-16T14:18:15;2.05;;;0.60;;
20142;SDS011;10509;46.476;7.134;2022-10-16T14:20:43;1.35;;;0.60;;
20142;SDS011;10509;46.476;7.134;2022-10-16T14:23:20;0.80;;;0.40;;
20142;SDS011;10509;46.476;7.134;2022-10-16T14:25:46;0.80;;;0.35;;
20142;SDS011;10509;46.476;7.134;2022-10-16T14:30:48;0.52;;;0.40;;
20142;SDS011;10509;46.476;7.134;2022-10-16T14:36:03;0.98;;;0.40;;
20142;SDS011;10509;46.476;7.134;2022-10-16T14:38:30;1.25;;;0.50;;
20142;SDS011;10509;46.476;7.134;2022-10-16T14:40:57;0.52;;;0.32;;
20142;SDS011;10509;46.476;7.134;2022-10-16T14:43:34;1.40;;;0.40;;
20142;SDS011;10509;46.476;7.134;2022-10-16T14:46:01;0.45;;;0.40;;
20142;SDS011;10509;46.476;7.134;2022-10-16T14:48:27;0.60;;;0.45;;
20142;SDS011;10509;46.476;7.134;2022-10-16T14:50:54;1.25;;;0.47;;
20142;SDS011;10509;46.476;7.134;2022-10-16T14:53:20;0.60;;;0.40;;
20142;SDS011;10509;46.476;7.134;2022-10-16T14:55:46;4.05;;;0.60;;
20142;SDS011;10509;46.476;7.134;2022-10-16T14:58:18;0.95;;;0.40;;
20142;SDS011;10509;46.476;7.134;2022-10-16T15:00:44;0.93;;;0.40;;
20142;SDS011;10509;46.476;7.134;2022-10-16T15:03:10;0.68;;;0.50;;
20142;SDS011;10509;46.476;7.134;2022-10-16T15:05:36;0.63;;;0.38;;
20142;SDS011;10509;46.476;7.134;2022-10-16T15:08:02;0.75;;;0.55;;
20142;SDS011;10509;46.476;7.134;2022-10-16T15:10:33;1.95;;;0.57;;
20142;SDS011;10509;46.476;7.134;2022-10-16T15:13:01;0.60;;;0.40;;
20142;SDS011;10509;46.476;7.134;2022-10-16T15:15:36;0.35;;;0.30;;
20142;SDS011;10509;46.476;7.134;2022-10-16T15:18:03;0.63;;;0.50;;
20142;SDS011;10509;46.476;7.134;2022-10-16T15:20:34;2.92;;;0.50;;
20142;SDS011;10509;46.476;7.134;2022-10-16T15:23:01;1.60;;;0.43;;
20142;SDS011;10509;46.476;7.134;2022-10-16T15:27:57;1.30;;;0.50;;
20142;SDS011;10509;46.476;7.134;2022-10-16T15:30:23;1.00;;;0.30;;
20142;SDS011;10509;46.476;7.134;2022-10-16T15:32:49;1.42;;;0.40;;
20142;SDS011;10509;46.476;7.134;2022-10-16T15:35:15;0.50;;;0.50;;
20142;SDS011;10509;46.476;7.134;2022-10-16T15:37:41;1.50;;;0.40;;
20142;SDS011;10509;46.476;7.134;2022-10-16T15:40:08;1.40;;;0.50;;
20142;SDS011;10509;46.476;7.134;2022-10-16T15:42:34;0.95;;;0.50;;
20142;SDS011;10509;46.476;7.134;2022-10-16T15:45:00;0.50;;;0.40;;
20142;SDS011;10509;46.476;7.134;2022-10-16T15:47:26;0.68;;;0.40;;
20142;SDS011;10509;46.476;7.134;2022-10-16T15:49:52;1.80;;;0.50;;
20142;SDS011;10509;46.476;7.134;2022-10-16T15:52:18;1.80;;;0.80;;
20142;SDS011;10509;46.476;7.134;2022-10-16T15:54:44;2.70;;;1.08;;
20142;SDS011;10509;46.476;7.134;2022-10-16T15:57:10;1.67;;;0.60;;
20142;SDS011;10509;46.476;7.134;2022-10-16T15:59:36;2.70;;;0.82;;
20142;SDS011;10509;46.476;7.134;2022-10-16T16:02:02;2.95;;;0.70;;
20142;SDS011;10509;46.476;7.134;2022-10-16T16:04:31;0.88;;;0.60;;
20142;SDS011;10509;46.476;7.134;2022-10-16T16:06:57;1.70;;;0.80;;
20142;SDS011;10509;46.476;7.134;2022-10-16T16:09:23;0.95;;;0.50;;
20142;SDS011;10509;46.476;7.134;2022-10-16T16:11:49;1.48;;;0.50;;
20142;SDS011;10509;46.476;7.134;2022-10-16T16:14:17;1.25;;;0.50;;
20142;SDS011;10509;46.476;7.134;2022-10-16T16:16:43;2.38;;;0.70;;
20142;SDS011;10509;46.476;7.134;2022-10-16T16:19:09;1.52;;;0.60;;
20142;SDS011;10509;46.476;7.134;2022-10-16T16:21:35;1.05;;;0.60;;
20142;SDS011;10509;46.476;7.134;2022-10-16T16:24:01;0.95;;;0.50;;
20142;SDS011;10509;46.476;7.134;2022-10-16T16:26:32;0.55;;;0.45;;
20142;SDS011;10509;46.476;7.134;2022-10-16T16:29:01;2.95;;;0.60;;
20142;SDS011;10509;46.476;7.134;2022-10-16T16:31:27;1.20;;;0.70;;
20142;SDS011;10509;46.476;7.134;2022-10-16T16:33:54;0.50;;;0.50;;
20142;SDS011;10509;46.476;7.134;2022-10-16T16:36:21;1.90;;;0.50;;
20142;SDS011;10509;46.476;7.134;2022-10-16T16:38:48;1.20;;;0.63;;
20142;SDS011;10509;46.476;7.134;2022-10-16T16:41:17;1.65;;;0.60;;
20142;SDS011;10509;46.476;7.134;2022-10-16T16:43:43;1.37;;;0.50;;
20142;SDS011;10509;46.476;7.134;2022-10-16T16:46:10;1.42;;;0.60;;
20142;SDS011;10509;46.476;7.134;2022-10-16T16:48:36;2.47;;;0.60;;
20142;SDS011;10509;46.476;7.134;2022-10-16T16:51:04;0.93;;;0.57;;
20142;SDS011;10509;46.476;7.134;2022-10-16T16:53:30;2.93;;;0.60;;
20142;SDS011;10509;46.476;7.134;2022-10-16T16:56:00;1.30;;;0.80;;
20142;SDS011;10509;46.476;7.134;2022-10-16T16:58:26;1.77;;;0.90;;
20142;SDS011;10509;46.476;7.134;2022-10-16T17:00:52;2.37;;;1.00;;